Costa Romantica — IBCR — position and weather

sailwx.info

Track history (hours):
 
Tides and Currents Weather Stations Pressure Air Temp Water Temp Dewpoint Dewpoint Depression Visibility Wind Speed Wind Dir Waves Ship Positions

Costa Romantica

Last reported at 2019-Dec-14 01:24 UTC. Time now 2019-Dec-15 10:09 UTC.
Position N 35°04' E 129°07'.

Length 221 m; draft 7.8 m.

Type: Ship. MMSI: 247817000.

Date/timePositionNaut miles runAvg speedWind from/ knotsBaromVisibWave heightAir tempDewpointWater temp
2019-Dec-14 01:24N 35°04' E 129°07'4 2.2
2019-Dec-13 23:29N 35°07' E 129°03'0 0.0
2019-Dec-13 22:29N 35°07' E 129°03'13 5.1
2019-Dec-13 20:02N 34°56' E 129°11'4313.3
2019-Dec-13 16:47N 34°17' E 128°48'  
2019-Dec-10 14:00N 25°34' E 121°59'1615.8
2019-Dec-10 12:59N 25°20' E 121°51'816.1
2019-Dec-10 12:30N 25°13' E 121°48'6 5.2
2019-Dec-10 11:26N 25°08' E 121°45'0 0.0
2019-Dec-10 10:22N 25°08' E 121°45'0 0.0
2019-Dec-10 09:28N 25°08' E 121°45'0 0.0
2019-Dec-10 08:53N 25°08' E 121°45'0 0.0
2019-Dec-10 06:29N 25°08' E 121°45'0 0.0
2019-Dec-10 04:26N 25°08' E 121°45'0 0.0
2019-Dec-10 03:29N 25°08' E 121°45'0 0.0
2019-Dec-10 02:58N 25°08' E 121°45'0 0.0
2019-Dec-10 01:58N 25°08' E 121°45'0 0.0
2019-Dec-09 21:55N 25°08' E 121°45'0 0.0
2019-Dec-09 20:56N 25°08' E 121°45'0 0.0
2019-Dec-09 20:23N 25°08' E 121°45'0 0.0
2019-Dec-09 19:55N 25°08' E 121°45'0 0.0
2019-Dec-09 17:58N 25°08' E 121°45'0 0.0
2019-Dec-09 06:56N 25°08' E 121°45'21 8.5
2019-Dec-09 04:27N 25°29' E 121°44'69116.3
2019-Dec-07 10:04N 35°04' E 129°07'4 7.3
2019-Dec-07 09:30N 35°07' E 129°03'0 0.0
2019-Dec-07 08:30N 35°07' E 129°03'0 0.0
2019-Dec-07 07:00N 35°07' E 129°03'0 0.0
2019-Dec-07 06:30N 35°07' E 129°03'0 0.0
2019-Dec-07 04:30N 35°07' E 129°03'0 0.0
2019-Dec-07 03:00N 35°07' E 129°03'0 0.0
2019-Dec-07 01:00N 35°07' E 129°03'0 0.0
2019-Dec-07 00:00N 35°07' E 129°03'0 0.0
2019-Dec-06 23:30N 35°07' E 129°03'0 0.0
2019-Dec-06 21:30N 35°07' E 129°03'0 0.0
2019-Dec-06 21:00N 35°07' E 129°03'0 0.0
2019-Dec-06 20:00N 35°07' E 129°03'0 0.0
2019-Dec-06 19:30N 35°07' E 129°03'0 0.0
2019-Dec-06 18:00N 35°07' E 129°03'0 0.0
2019-Dec-06 17:00N 35°07' E 129°03'0 0.0
2019-Dec-06 16:00N 35°07' E 129°03'0 0.0
2019-Dec-06 14:30N 35°07' E 129°03'0 0.0
2019-Dec-06 14:00N 35°07' E 129°03'0 0.0
2019-Dec-06 13:00N 35°07' E 129°03'0 0.0
2019-Dec-06 12:30N 35°07' E 129°03'0 0.0
2019-Dec-06 12:00N 35°07' E 129°03'0 0.0
2019-Dec-06 11:00N 35°07' E 129°03'0 0.0
2019-Dec-06 07:00N 35°07' E 129°03'0 0.0
2019-Dec-06 06:30N 35°07' E 129°03'0 0.0
2019-Dec-06 04:30N 35°07' E 129°03'0 0.0
2019-Dec-06 02:00N 35°07' E 129°03'0 0.0
2019-Dec-06 01:30N 35°07' E 129°03'8 2.8
2019-Dec-05 22:30N 35°03' E 129°12'  
Track history (hours):
 
Tides and Currents Weather Stations Pressure Air Temp Water Temp Dewpoint Dewpoint Depression Visibility Wind Speed Wind Dir Waves Ship Positions

Costa Romantica

Last reported at 2019-Dec-14 01:24 UTC. Time now 2019-Dec-15 10:09 UTC.
Position N 35°04' E 129°07'.

Length 221 m; draft 7.8 m.

Type: Ship. MMSI: 247817000.

Date/timePositionNaut miles runAvg speedWind from/ knotsBaromVisibWave heightAir tempDewpointWater temp
2019-Dec-14 01:24N 35°04' E 129°07'4 2.2
2019-Dec-13 23:29N 35°07' E 129°03'0 0.0
2019-Dec-13 22:29N 35°07' E 129°03'13 5.1
2019-Dec-13 20:02N 34°56' E 129°11'4313.3
2019-Dec-13 16:47N 34°17' E 128°48'  
2019-Dec-10 14:00N 25°34' E 121°59'1615.8
2019-Dec-10 12:59N 25°20' E 121°51'816.1
2019-Dec-10 12:30N 25°13' E 121°48'6 5.2
2019-Dec-10 11:26N 25°08' E 121°45'0 0.0
2019-Dec-10 10:22N 25°08' E 121°45'0 0.0
2019-Dec-10 09:28N 25°08' E 121°45'0 0.0
2019-Dec-10 08:53N 25°08' E 121°45'0 0.0
2019-Dec-10 06:29N 25°08' E 121°45'0 0.0
2019-Dec-10 04:26N 25°08' E 121°45'0 0.0
2019-Dec-10 03:29N 25°08' E 121°45'0 0.0
2019-Dec-10 02:58N 25°08' E 121°45'0 0.0
2019-Dec-10 01:58N 25°08' E 121°45'0 0.0
2019-Dec-09 21:55N 25°08' E 121°45'0 0.0
2019-Dec-09 20:56N 25°08' E 121°45'0 0.0
2019-Dec-09 20:23N 25°08' E 121°45'0 0.0
2019-Dec-09 19:55N 25°08' E 121°45'0 0.0
2019-Dec-09 17:58N 25°08' E 121°45'0 0.0
2019-Dec-09 06:56N 25°08' E 121°45'21 8.5
2019-Dec-09 04:27N 25°29' E 121°44'69116.3
2019-Dec-07 10:04N 35°04' E 129°07'4 7.3
2019-Dec-07 09:30N 35°07' E 129°03'0 0.0
2019-Dec-07 08:30N 35°07' E 129°03'0 0.0
2019-Dec-07 07:00N 35°07' E 129°03'0 0.0
2019-Dec-07 06:30N 35°07' E 129°03'0 0.0
2019-Dec-07 04:30N 35°07' E 129°03'0 0.0
2019-Dec-07 03:00N 35°07' E 129°03'0 0.0
2019-Dec-07 01:00N 35°07' E 129°03'0 0.0
2019-Dec-07 00:00N 35°07' E 129°03'0 0.0
2019-Dec-06 23:30N 35°07' E 129°03'0 0.0
2019-Dec-06 21:30N 35°07' E 129°03'0 0.0
2019-Dec-06 21:00N 35°07' E 129°03'0 0.0
2019-Dec-06 20:00N 35°07' E 129°03'0 0.0
2019-Dec-06 19:30N 35°07' E 129°03'0 0.0
2019-Dec-06 18:00N 35°07' E 129°03'0 0.0
2019-Dec-06 17:00N 35°07' E 129°03'0 0.0
2019-Dec-06 16:00N 35°07' E 129°03'0 0.0
2019-Dec-06 14:30N 35°07' E 129°03'0 0.0
2019-Dec-06 14:00N 35°07' E 129°03'0 0.0
2019-Dec-06 13:00N 35°07' E 129°03'0 0.0
2019-Dec-06 12:30N 35°07' E 129°03'0 0.0
2019-Dec-06 12:00N 35°07' E 129°03'0 0.0
2019-Dec-06 11:00N 35°07' E 129°03'0 0.0
2019-Dec-06 07:00N 35°07' E 129°03'0 0.0
2019-Dec-06 06:30N 35°07' E 129°03'0 0.0
2019-Dec-06 04:30N 35°07' E 129°03'0 0.0
2019-Dec-06 02:00N 35°07' E 129°03'0 0.0
2019-Dec-06 01:30N 35°07' E 129°03'8 2.8
2019-Dec-05 22:30N 35°03' E 129°12'  

Dump ship's entire track history